sensor_id;sensor_type;location;lat;lon;timestamp;P1;durP1;ratioP1;P2;durP2;ratioP2
42590;SDS011;28218;53.342;-6.216;2022-07-04T00:02:13;3.65;;;0.63;;
42590;SDS011;28218;53.342;-6.216;2022-07-04T00:04:43;1.70;;;0.60;;
42590;SDS011;28218;53.342;-6.216;2022-07-04T00:07:12;4.57;;;0.93;;
42590;SDS011;28218;53.342;-6.216;2022-07-04T00:09:40;5.15;;;0.77;;
42590;SDS011;28218;53.342;-6.216;2022-07-04T00:12:09;3.97;;;0.73;;
42590;SDS011;28218;53.342;-6.216;2022-07-04T00:14:37;3.92;;;0.98;;
42590;SDS011;28218;53.342;-6.216;2022-07-04T00:17:06;3.95;;;0.65;;
42590;SDS011;28218;53.342;-6.216;2022-07-04T00:19:35;3.33;;;0.90;;
42590;SDS011;28218;53.342;-6.216;2022-07-04T00:22:05;1.92;;;0.57;;
42590;SDS011;28218;53.342;-6.216;2022-07-04T00:24:33;0.65;;;0.60;;
42590;SDS011;28218;53.342;-6.216;2022-07-04T00:27:01;1.65;;;0.55;;
42590;SDS011;28218;53.342;-6.216;2022-07-04T00:29:30;1.85;;;0.50;;
42590;SDS011;28218;53.342;-6.216;2022-07-04T00:31:59;1.85;;;0.60;;
42590;SDS011;28218;53.342;-6.216;2022-07-04T00:34:28;3.03;;;0.57;;
42590;SDS011;28218;53.342;-6.216;2022-07-04T00:36:57;4.68;;;0.73;;
42590;SDS011;28218;53.342;-6.216;2022-07-04T00:39:26;4.70;;;0.55;;
42590;SDS011;28218;53.342;-6.216;2022-07-04T00:41:55;3.70;;;0.57;;
42590;SDS011;28218;53.342;-6.216;2022-07-04T00:44:23;0.90;;;0.40;;
42590;SDS011;28218;53.342;-6.216;2022-07-04T00:46:51;2.15;;;0.50;;
42590;SDS011;28218;53.342;-6.216;2022-07-04T00:49:20;1.52;;;0.40;;
42590;SDS011;28218;53.342;-6.216;2022-07-04T00:51:48;3.45;;;0.60;;
42590;SDS011;28218;53.342;-6.216;2022-07-04T00:54:17;2.33;;;0.68;;
42590;SDS011;28218;53.342;-6.216;2022-07-04T00:56:49;2.85;;;0.50;;
42590;SDS011;28218;53.342;-6.216;2022-07-04T00:59:17;3.60;;;0.50;;
42590;SDS011;28218;53.342;-6.216;2022-07-04T01:01:45;4.50;;;0.75;;
42590;SDS011;28218;53.342;-6.216;2022-07-04T01:04:15;0.80;;;0.45;;
42590;SDS011;28218;53.342;-6.216;2022-07-04T01:06:43;1.42;;;0.43;;
42590;SDS011;28218;53.342;-6.216;2022-07-04T01:09:12;2.17;;;0.40;;
42590;SDS011;28218;53.342;-6.216;2022-07-04T01:11:41;0.73;;;0.50;;
42590;SDS011;28218;53.342;-6.216;2022-07-04T01:14:11;3.13;;;0.60;;
42590;SDS011;28218;53.342;-6.216;2022-07-04T01:16:39;1.33;;;0.55;;
42590;SDS011;28218;53.342;-6.216;2022-07-04T01:19:08;1.95;;;1.15;;
42590;SDS011;28218;53.342;-6.216;2022-07-04T01:21:37;1.55;;;0.50;;
42590;SDS011;28218;53.342;-6.216;2022-07-04T01:24:06;0.60;;;0.60;;
42590;SDS011;28218;53.342;-6.216;2022-07-04T01:26:38;2.42;;;0.60;;
42590;SDS011;28218;53.342;-6.216;2022-07-04T01:29:06;1.55;;;0.50;;
42590;SDS011;28218;53.342;-6.216;2022-07-04T01:31:34;3.97;;;0.47;;
42590;SDS011;28218;53.342;-6.216;2022-07-04T01:34:03;1.58;;;0.68;;
42590;SDS011;28218;53.342;-6.216;2022-07-04T01:36:31;0.57;;;0.47;;
42590;SDS011;28218;53.342;-6.216;2022-07-04T01:39:02;3.03;;;0.47;;
42590;SDS011;28218;53.342;-6.216;2022-07-04T01:41:32;1.23;;;0.30;;
42590;SDS011;28218;53.342;-6.216;2022-07-04T01:44:01;1.63;;;0.40;;
42590;SDS011;28218;53.342;-6.216;2022-07-04T01:46:30;1.73;;;0.47;;
42590;SDS011;28218;53.342;-6.216;2022-07-04T01:48:59;4.50;;;0.50;;
42590;SDS011;28218;53.342;-6.216;2022-07-04T01:51:27;1.17;;;0.50;;
42590;SDS011;28218;53.342;-6.216;2022-07-04T01:53:56;1.45;;;0.43;;
42590;SDS011;28218;53.342;-6.216;2022-07-04T01:56:25;2.15;;;0.57;;
42590;SDS011;28218;53.342;-6.216;2022-07-04T01:58:54;1.33;;;0.50;;
42590;SDS011;28218;53.342;-6.216;2022-07-04T02:01:22;5.13;;;0.55;;
42590;SDS011;28218;53.342;-6.216;2022-07-04T02:03:58;4.28;;;0.70;;
42590;SDS011;28218;53.342;-6.216;2022-07-04T02:06:28;1.75;;;0.57;;
42590;SDS011;28218;53.342;-6.216;2022-07-04T02:08:57;0.75;;;0.60;;
42590;SDS011;28218;53.342;-6.216;2022-07-04T02:11:45;1.05;;;0.50;;
42590;SDS011;28218;53.342;-6.216;2022-07-04T02:14:31;1.17;;;0.50;;
42590;SDS011;28218;53.342;-6.216;2022-07-04T02:17:00;2.67;;;0.45;;
42590;SDS011;28218;53.342;-6.216;2022-07-04T02:19:29;1.38;;;0.40;;
42590;SDS011;28218;53.342;-6.216;2022-07-04T02:21:57;2.10;;;0.75;;
42590;SDS011;28218;53.342;-6.216;2022-07-04T02:24:25;4.75;;;0.70;;
42590;SDS011;28218;53.342;-6.216;2022-07-04T02:26:55;2.70;;;0.50;;
42590;SDS011;28218;53.342;-6.216;2022-07-04T02:29:23;2.08;;;0.85;;
42590;SDS011;28218;53.342;-6.216;2022-07-04T02:31:52;1.30;;;0.30;;
42590;SDS011;28218;53.342;-6.216;2022-07-04T02:34:20;1.05;;;0.65;;
42590;SDS011;28218;53.342;-6.216;2022-07-04T02:36:48;2.83;;;0.75;;
42590;SDS011;28218;53.342;-6.216;2022-07-04T02:39:17;6.75;;;0.52;;
42590;SDS011;28218;53.342;-6.216;2022-07-04T02:41:45;1.40;;;0.50;;
42590;SDS011;28218;53.342;-6.216;2022-07-04T02:44:21;1.35;;;0.70;;
42590;SDS011;28218;53.342;-6.216;2022-07-04T02:46:49;2.15;;;0.40;;
42590;SDS011;28218;53.342;-6.216;2022-07-04T02:49:18;2.60;;;1.08;;
42590;SDS011;28218;53.342;-6.216;2022-07-04T02:51:47;2.72;;;0.82;;
42590;SDS011;28218;53.342;-6.216;2022-07-04T02:54:15;8.00;;;0.80;;
42590;SDS011;28218;53.342;-6.216;2022-07-04T02:56:44;2.30;;;0.70;;
42590;SDS011;28218;53.342;-6.216;2022-07-04T02:59:12;1.63;;;0.40;;
42590;SDS011;28218;53.342;-6.216;2022-07-04T03:01:42;2.25;;;0.90;;
42590;SDS011;28218;53.342;-6.216;2022-07-04T03:04:10;0.93;;;0.50;;
42590;SDS011;28218;53.342;-6.216;2022-07-04T03:06:39;2.88;;;0.60;;
42590;SDS011;28218;53.342;-6.216;2022-07-04T03:09:09;0.65;;;0.60;;
42590;SDS011;28218;53.342;-6.216;2022-07-04T03:11:37;1.23;;;0.75;;
42590;SDS011;28218;53.342;-6.216;2022-07-04T03:14:06;5.13;;;0.75;;
42590;SDS011;28218;53.342;-6.216;2022-07-04T03:16:34;1.77;;;0.70;;
42590;SDS011;28218;53.342;-6.216;2022-07-04T03:19:04;3.33;;;0.70;;
42590;SDS011;28218;53.342;-6.216;2022-07-04T03:21:32;1.27;;;0.73;;
42590;SDS011;28218;53.342;-6.216;2022-07-04T03:24:00;1.80;;;0.90;;
42590;SDS011;28218;53.342;-6.216;2022-07-04T03:26:29;1.85;;;0.80;;
42590;SDS011;28218;53.342;-6.216;2022-07-04T03:28:59;1.70;;;0.90;;
42590;SDS011;28218;53.342;-6.216;2022-07-04T03:31:28;2.45;;;0.90;;
42590;SDS011;28218;53.342;-6.216;2022-07-04T03:33:57;2.72;;;0.90;;
42590;SDS011;28218;53.342;-6.216;2022-07-04T03:36:27;4.15;;;0.88;;
42590;SDS011;28218;53.342;-6.216;2022-07-04T03:38:55;2.05;;;1.27;;
42590;SDS011;28218;53.342;-6.216;2022-07-04T03:41:23;1.73;;;0.93;;
42590;SDS011;28218;53.342;-6.216;2022-07-04T03:43:51;0.80;;;0.80;;
42590;SDS011;28218;53.342;-6.216;2022-07-04T03:46:19;1.63;;;0.80;;
42590;SDS011;28218;53.342;-6.216;2022-07-04T03:48:48;1.00;;;0.88;;
42590;SDS011;28218;53.342;-6.216;2022-07-04T03:51:16;4.35;;;1.15;;
42590;SDS011;28218;53.342;-6.216;2022-07-04T03:53:46;2.60;;;0.70;;
42590;SDS011;28218;53.342;-6.216;2022-07-04T03:56:14;7.85;;;2.88;;
42590;SDS011;28218;53.342;-6.216;2022-07-04T03:58:43;2.72;;;0.88;;
42590;SDS011;28218;53.342;-6.216;2022-07-04T04:01:15;1.13;;;0.52;;
42590;SDS011;28218;53.342;-6.216;2022-07-04T04:03:45;4.60;;;0.90;;
42590;SDS011;28218;53.342;-6.216;2022-07-04T04:06:30;3.42;;;0.80;;
42590;SDS011;28218;53.342;-6.216;2022-07-04T04:09:00;3.13;;;0.80;;
42590;SDS011;28218;53.342;-6.216;2022-07-04T04:11:35;3.90;;;0.90;;
42590;SDS011;28218;53.342;-6.216;2022-07-04T04:14:03;4.63;;;1.05;;
42590;SDS011;28218;53.342;-6.216;2022-07-04T04:16:31;4.18;;;0.95;;
42590;SDS011;28218;53.342;-6.216;2022-07-04T04:19:00;4.57;;;1.15;;
42590;SDS011;28218;53.342;-6.216;2022-07-04T04:21:28;4.20;;;1.63;;
42590;SDS011;28218;53.342;-6.216;2022-07-04T04:23:57;2.75;;;1.10;;
42590;SDS011;28218;53.342;-6.216;2022-07-04T04:26:26;0.70;;;0.63;;
42590;SDS011;28218;53.342;-6.216;2022-07-04T04:28:55;3.63;;;1.05;;
42590;SDS011;28218;53.342;-6.216;2022-07-04T04:31:23;3.10;;;1.10;;
42590;SDS011;28218;53.342;-6.216;2022-07-04T04:33:52;5.00;;;1.35;;
42590;SDS011;28218;53.342;-6.216;2022-07-04T04:36:20;1.15;;;0.95;;
42590;SDS011;28218;53.342;-6.216;2022-07-04T04:38:48;5.15;;;1.08;;
42590;SDS011;28218;53.342;-6.216;2022-07-04T04:41:16;1.30;;;0.88;;
42590;SDS011;28218;53.342;-6.216;2022-07-04T04:43:46;2.47;;;0.93;;
42590;SDS011;28218;53.342;-6.216;2022-07-04T04:46:18;5.65;;;1.45;;
42590;SDS011;28218;53.342;-6.216;2022-07-04T04:48:47;5.85;;;1.23;;
42590;SDS011;28218;53.342;-6.216;2022-07-04T04:51:15;2.17;;;1.35;;
42590;SDS011;28218;53.342;-6.216;2022-07-04T04:53:43;3.25;;;1.10;;
42590;SDS011;28218;53.342;-6.216;2022-07-04T04:56:12;4.93;;;1.20;;
42590;SDS011;28218;53.342;-6.216;2022-07-04T04:58:40;4.47;;;1.10;;
42590;SDS011;28218;53.342;-6.216;2022-07-04T05:01:10;1.40;;;1.20;;
42590;SDS011;28218;53.342;-6.216;2022-07-04T05:03:58;5.13;;;1.40;;
42590;SDS011;28218;53.342;-6.216;2022-07-04T05:06:26;2.67;;;1.20;;
42590;SDS011;28218;53.342;-6.216;2022-07-04T05:08:55;3.55;;;1.00;;
42590;SDS011;28218;53.342;-6.216;2022-07-04T05:11:23;2.35;;;1.25;;
42590;SDS011;28218;53.342;-6.216;2022-07-04T05:13:51;1.85;;;0.80;;
42590;SDS011;28218;53.342;-6.216;2022-07-04T05:16:21;5.90;;;1.40;;
42590;SDS011;28218;53.342;-6.216;2022-07-04T05:18:49;2.00;;;1.08;;
42590;SDS011;28218;53.342;-6.216;2022-07-04T05:21:17;4.38;;;1.33;;
42590;SDS011;28218;53.342;-6.216;2022-07-04T05:23:46;3.15;;;1.30;;
42590;SDS011;28218;53.342;-6.216;2022-07-04T05:26:14;1.88;;;1.30;;
42590;SDS011;28218;53.342;-6.216;2022-07-04T05:28:42;5.47;;;1.38;;
42590;SDS011;28218;53.342;-6.216;2022-07-04T05:31:10;4.28;;;1.13;;
42590;SDS011;28218;53.342;-6.216;2022-07-04T05:33:40;2.63;;;1.20;;
42590;SDS011;28218;53.342;-6.216;2022-07-04T05:36:08;4.30;;;1.38;;
42590;SDS011;28218;53.342;-6.216;2022-07-04T05:38:37;3.10;;;1.50;;
42590;SDS011;28218;53.342;-6.216;2022-07-04T05:41:05;4.03;;;1.35;;
42590;SDS011;28218;53.342;-6.216;2022-07-04T05:43:33;8.68;;;1.08;;
42590;SDS011;28218;53.342;-6.216;2022-07-04T05:46:01;3.92;;;1.27;;
42590;SDS011;28218;53.342;-6.216;2022-07-04T05:48:30;2.28;;;0.90;;
42590;SDS011;28218;53.342;-6.216;2022-07-04T05:50:59;4.80;;;1.52;;
42590;SDS011;28218;53.342;-6.216;2022-07-04T05:53:28;5.15;;;1.20;;
42590;SDS011;28218;53.342;-6.216;2022-07-04T05:55:56;3.45;;;1.30;;
42590;SDS011;28218;53.342;-6.216;2022-07-04T05:58:24;3.58;;;1.15;;
42590;SDS011;28218;53.342;-6.216;2022-07-04T06:00:53;3.17;;;1.23;;
42590;SDS011;28218;53.342;-6.216;2022-07-04T06:03:21;3.60;;;1.30;;
42590;SDS011;28218;53.342;-6.216;2022-07-04T06:05:50;7.13;;;1.60;;
42590;SDS011;28218;53.342;-6.216;2022-07-04T06:08:21;7.10;;;1.73;;
42590;SDS011;28218;53.342;-6.216;2022-07-04T06:10:49;9.60;;;1.42;;
42590;SDS011;28218;53.342;-6.216;2022-07-04T06:13:17;6.97;;;1.35;;
42590;SDS011;28218;53.342;-6.216;2022-07-04T06:15:45;3.63;;;1.25;;
42590;SDS011;28218;53.342;-6.216;2022-07-04T06:18:14;7.30;;;1.35;;
42590;SDS011;28218;53.342;-6.216;2022-07-04T06:20:42;4.28;;;1.30;;
42590;SDS011;28218;53.342;-6.216;2022-07-04T06:23:10;4.47;;;1.52;;
42590;SDS011;28218;53.342;-6.216;2022-07-04T06:25:40;3.95;;;1.33;;
42590;SDS011;28218;53.342;-6.216;2022-07-04T06:28:09;2.92;;;1.25;;
42590;SDS011;28218;53.342;-6.216;2022-07-04T06:30:57;6.40;;;1.27;;
42590;SDS011;28218;53.342;-6.216;2022-07-04T06:33:26;4.22;;;1.30;;
42590;SDS011;28218;53.342;-6.216;2022-07-04T06:35:54;4.47;;;1.45;;
42590;SDS011;28218;53.342;-6.216;2022-07-04T06:38:22;3.00;;;1.30;;
42590;SDS011;28218;53.342;-6.216;2022-07-04T06:40:54;4.63;;;1.35;;
42590;SDS011;28218;53.342;-6.216;2022-07-04T06:43:24;3.47;;;0.95;;
42590;SDS011;28218;53.342;-6.216;2022-07-04T06:45:53;7.78;;;1.52;;
42590;SDS011;28218;53.342;-6.216;2022-07-04T06:48:21;5.68;;;1.30;;
42590;SDS011;28218;53.342;-6.216;2022-07-04T06:50:50;10.25;;;1.42;;
42590;SDS011;28218;53.342;-6.216;2022-07-04T06:53:18;2.38;;;1.50;;
42590;SDS011;28218;53.342;-6.216;2022-07-04T06:55:47;9.52;;;1.98;;
42590;SDS011;28218;53.342;-6.216;2022-07-04T06:58:17;4.45;;;1.30;;
42590;SDS011;28218;53.342;-6.216;2022-07-04T07:00:45;4.18;;;1.42;;
42590;SDS011;28218;53.342;-6.216;2022-07-04T07:03:14;7.47;;;1.15;;
42590;SDS011;28218;53.342;-6.216;2022-07-04T07:05:42;4.18;;;1.30;;
42590;SDS011;28218;53.342;-6.216;2022-07-04T07:08:27;4.15;;;1.23;;
42590;SDS011;28218;53.342;-6.216;2022-07-04T07:10:56;3.30;;;1.23;;
42590;SDS011;28218;53.342;-6.216;2022-07-04T07:13:41;3.42;;;0.98;;
42590;SDS011;28218;53.342;-6.216;2022-07-04T07:16:11;1.48;;;0.95;;
42590;SDS011;28218;53.342;-6.216;2022-07-04T07:18:40;3.13;;;1.00;;
42590;SDS011;28218;53.342;-6.216;2022-07-04T07:21:09;2.72;;;1.08;;
42590;SDS011;28218;53.342;-6.216;2022-07-04T07:23:38;2.25;;;0.90;;
42590;SDS011;28218;53.342;-6.216;2022-07-04T07:26:07;2.47;;;0.90;;
42590;SDS011;28218;53.342;-6.216;2022-07-04T07:28:36;4.68;;;0.93;;
42590;SDS011;28218;53.342;-6.216;2022-07-04T07:31:05;2.85;;;0.57;;
42590;SDS011;28218;53.342;-6.216;2022-07-04T07:33:34;1.25;;;0.65;;
42590;SDS011;28218;53.342;-6.216;2022-07-04T07:36:02;1.88;;;0.50;;
42590;SDS011;28218;53.342;-6.216;2022-07-04T07:38:31;0.85;;;0.32;;
42590;SDS011;28218;53.342;-6.216;2022-07-04T07:40:59;2.42;;;0.50;;
42590;SDS011;28218;53.342;-6.216;2022-07-04T07:43:27;1.05;;;0.40;;
42590;SDS011;28218;53.342;-6.216;2022-07-04T07:45:56;0.73;;;0.40;;
42590;SDS011;28218;53.342;-6.216;2022-07-04T07:48:26;1.63;;;0.75;;
42590;SDS011;28218;53.342;-6.216;2022-07-04T07:50:54;1.98;;;0.90;;
42590;SDS011;28218;53.342;-6.216;2022-07-04T07:53:22;4.78;;;0.98;;
42590;SDS011;28218;53.342;-6.216;2022-07-04T07:55:51;4.32;;;0.70;;
42590;SDS011;28218;53.342;-6.216;2022-07-04T07:58:19;3.47;;;0.60;;
42590;SDS011;28218;53.342;-6.216;2022-07-04T08:00:47;2.00;;;0.80;;
42590;SDS011;28218;53.342;-6.216;2022-07-04T08:03:21;1.67;;;0.47;;
42590;SDS011;28218;53.342;-6.216;2022-07-04T08:06:09;6.32;;;1.60;;
42590;SDS011;28218;53.342;-6.216;2022-07-04T08:08:38;5.90;;;0.88;;
42590;SDS011;28218;53.342;-6.216;2022-07-04T08:11:07;1.80;;;0.50;;
42590;SDS011;28218;53.342;-6.216;2022-07-04T08:13:35;2.15;;;0.98;;
42590;SDS011;28218;53.342;-6.216;2022-07-04T08:16:04;2.95;;;0.73;;
42590;SDS011;28218;53.342;-6.216;2022-07-04T08:18:33;4.35;;;0.90;;
42590;SDS011;28218;53.342;-6.216;2022-07-04T08:21:02;1.50;;;0.60;;
42590;SDS011;28218;53.342;-6.216;2022-07-04T08:23:39;6.30;;;1.30;;
42590;SDS011;28218;53.342;-6.216;2022-07-04T08:26:28;3.67;;;0.70;;
42590;SDS011;28218;53.342;-6.216;2022-07-04T08:28:56;1.58;;;0.88;;
42590;SDS011;28218;53.342;-6.216;2022-07-04T08:31:26;1.50;;;0.80;;
42590;SDS011;28218;53.342;-6.216;2022-07-04T08:34:14;2.55;;;0.60;;
42590;SDS011;28218;53.342;-6.216;2022-07-04T08:36:43;3.35;;;0.90;;
42590;SDS011;28218;53.342;-6.216;2022-07-04T08:39:13;4.05;;;0.98;;
42590;SDS011;28218;53.342;-6.216;2022-07-04T08:41:43;3.22;;;1.00;;
42590;SDS011;28218;53.342;-6.216;2022-07-04T08:44:11;3.08;;;0.80;;
42590;SDS011;28218;53.342;-6.216;2022-07-04T08:46:41;2.72;;;0.70;;
42590;SDS011;28218;53.342;-6.216;2022-07-04T08:49:10;6.05;;;0.95;;
42590;SDS011;28218;53.342;-6.216;2022-07-04T08:51:45;2.45;;;0.70;;
42590;SDS011;28218;53.342;-6.216;2022-07-04T08:54:20;2.80;;;1.05;;
42590;SDS011;28218;53.342;-6.216;2022-07-04T08:57:07;2.53;;;0.75;;
42590;SDS011;28218;53.342;-6.216;2022-07-04T08:59:52;7.70;;;1.38;;
42590;SDS011;28218;53.342;-6.216;2022-07-04T09:02:22;2.65;;;0.50;;
42590;SDS011;28218;53.342;-6.216;2022-07-04T09:04:51;2.58;;;0.55;;
42590;SDS011;28218;53.342;-6.216;2022-07-04T09:07:19;5.57;;;1.20;;
42590;SDS011;28218;53.342;-6.216;2022-07-04T09:09:49;4.40;;;0.80;;
42590;SDS011;28218;53.342;-6.216;2022-07-04T09:12:19;1.30;;;0.60;;
42590;SDS011;28218;53.342;-6.216;2022-07-04T09:14:47;8.77;;;1.08;;
42590;SDS011;28218;53.342;-6.216;2022-07-04T09:17:18;2.17;;;0.63;;
42590;SDS011;28218;53.342;-6.216;2022-07-04T09:22:41;3.00;;;0.80;;
42590;SDS011;28218;53.342;-6.216;2022-07-04T09:25:11;3.95;;;0.90;;
42590;SDS011;28218;53.342;-6.216;2022-07-04T09:27:42;2.60;;;1.00;;
42590;SDS011;28218;53.342;-6.216;2022-07-04T09:30:14;2.33;;;0.70;;
42590;SDS011;28218;53.342;-6.216;2022-07-04T09:32:44;3.22;;;0.90;;
42590;SDS011;28218;53.342;-6.216;2022-07-04T09:35:15;3.60;;;1.30;;
42590;SDS011;28218;53.342;-6.216;2022-07-04T09:37:45;2.22;;;1.08;;
42590;SDS011;28218;53.342;-6.216;2022-07-04T09:40:23;2.85;;;0.90;;
42590;SDS011;28218;53.342;-6.216;2022-07-04T09:42:53;2.47;;;0.80;;
42590;SDS011;28218;53.342;-6.216;2022-07-04T09:45:22;3.72;;;0.90;;
42590;SDS011;28218;53.342;-6.216;2022-07-04T09:47:54;4.22;;;0.70;;
42590;SDS011;28218;53.342;-6.216;2022-07-04T09:50:25;4.18;;;0.90;;
42590;SDS011;28218;53.342;-6.216;2022-07-04T09:52:55;5.93;;;0.75;;
42590;SDS011;28218;53.342;-6.216;2022-07-04T09:55:27;3.40;;;0.98;;
42590;SDS011;28218;53.342;-6.216;2022-07-04T09:57:58;2.67;;;1.00;;
42590;SDS011;28218;53.342;-6.216;2022-07-04T10:00:28;7.47;;;1.00;;
42590;SDS011;28218;53.342;-6.216;2022-07-04T10:05:45;2.47;;;0.80;;
42590;SDS011;28218;53.342;-6.216;2022-07-04T10:08:20;5.50;;;0.93;;
42590;SDS011;28218;53.342;-6.216;2022-07-04T10:10:53;5.65;;;1.02;;
42590;SDS011;28218;53.342;-6.216;2022-07-04T10:13:24;1.55;;;0.95;;
42590;SDS011;28218;53.342;-6.216;2022-07-04T10:15:52;4.20;;;1.00;;
42590;SDS011;28218;53.342;-6.216;2022-07-04T10:18:21;1.85;;;0.80;;
42590;SDS011;28218;53.342;-6.216;2022-07-04T10:20:51;4.10;;;0.90;;
42590;SDS011;28218;53.342;-6.216;2022-07-04T10:23:21;5.20;;;0.95;;
42590;SDS011;28218;53.342;-6.216;2022-07-04T10:25:53;4.10;;;1.13;;
42590;SDS011;28218;53.342;-6.216;2022-07-04T10:28:21;3.85;;;1.00;;
42590;SDS011;28218;53.342;-6.216;2022-07-04T10:30:51;5.13;;;0.90;;
42590;SDS011;28218;53.342;-6.216;2022-07-04T10:33:22;6.57;;;0.95;;
42590;SDS011;28218;53.342;-6.216;2022-07-04T10:35:52;7.13;;;1.20;;
42590;SDS011;28218;53.342;-6.216;2022-07-04T10:38:22;4.88;;;1.00;;
42590;SDS011;28218;53.342;-6.216;2022-07-04T10:40:52;1.70;;;0.60;;
42590;SDS011;28218;53.342;-6.216;2022-07-04T10:46:36;1.80;;;0.80;;
42590;SDS011;28218;53.342;-6.216;2022-07-04T10:49:22;2.15;;;0.77;;
42590;SDS011;28218;53.342;-6.216;2022-07-04T10:51:52;6.32;;;0.98;;
42590;SDS011;28218;53.342;-6.216;2022-07-04T10:54:27;2.30;;;0.57;;
42590;SDS011;28218;53.342;-6.216;2022-07-04T10:57:08;2.60;;;0.70;;
42590;SDS011;28218;53.342;-6.216;2022-07-04T10:59:38;1.35;;;0.50;;
42590;SDS011;28218;53.342;-6.216;2022-07-04T11:02:24;2.20;;;0.80;;
42590;SDS011;28218;53.342;-6.216;2022-07-04T11:04:59;0.65;;;0.57;;
42590;SDS011;28218;53.342;-6.216;2022-07-04T11:10:30;2.20;;;0.70;;
42590;SDS011;28218;53.342;-6.216;2022-07-04T11:16:01;2.33;;;1.00;;
42590;SDS011;28218;53.342;-6.216;2022-07-04T11:18:38;2.13;;;0.80;;
42590;SDS011;28218;53.342;-6.216;2022-07-04T11:24:00;4.43;;;1.17;;
42590;SDS011;28218;53.342;-6.216;2022-07-04T11:26:28;3.08;;;0.93;;
42590;SDS011;28218;53.342;-6.216;2022-07-04T11:28:58;2.38;;;0.98;;
42590;SDS011;28218;53.342;-6.216;2022-07-04T11:31:36;2.45;;;0.85;;
42590;SDS011;28218;53.342;-6.216;2022-07-04T11:34:06;3.38;;;0.73;;
42590;SDS011;28218;53.342;-6.216;2022-07-04T11:36:35;3.30;;;0.93;;
42590;SDS011;28218;53.342;-6.216;2022-07-04T11:39:04;1.75;;;0.93;;
42590;SDS011;28218;53.342;-6.216;2022-07-04T11:41:34;4.93;;;1.13;;
42590;SDS011;28218;53.342;-6.216;2022-07-04T11:44:23;3.55;;;0.93;;
42590;SDS011;28218;53.342;-6.216;2022-07-04T11:47:10;2.72;;;0.65;;
42590;SDS011;28218;53.342;-6.216;2022-07-04T11:49:43;1.73;;;0.60;;
42590;SDS011;28218;53.342;-6.216;2022-07-04T11:52:14;3.20;;;0.90;;
42590;SDS011;28218;53.342;-6.216;2022-07-04T11:55:01;4.25;;;0.82;;
42590;SDS011;28218;53.342;-6.216;2022-07-04T11:57:33;1.95;;;0.80;;
42590;SDS011;28218;53.342;-6.216;2022-07-04T12:00:04;3.25;;;0.98;;
42590;SDS011;28218;53.342;-6.216;2022-07-04T12:02:42;4.78;;;1.20;;
42590;SDS011;28218;53.342;-6.216;2022-07-04T12:05:11;4.18;;;1.13;;
42590;SDS011;28218;53.342;-6.216;2022-07-04T12:07:40;4.97;;;0.88;;
42590;SDS011;28218;53.342;-6.216;2022-07-04T12:10:30;4.75;;;1.08;;
42590;SDS011;28218;53.342;-6.216;2022-07-04T12:12:59;3.72;;;0.98;;
42590;SDS011;28218;53.342;-6.216;2022-07-04T12:15:37;3.65;;;0.80;;
42590;SDS011;28218;53.342;-6.216;2022-07-04T12:18:14;1.83;;;0.77;;
42590;SDS011;28218;53.342;-6.216;2022-07-04T12:20:44;2.50;;;1.10;;
42590;SDS011;28218;53.342;-6.216;2022-07-04T12:23:12;4.07;;;0.88;;
42590;SDS011;28218;53.342;-6.216;2022-07-04T12:25:43;3.10;;;1.27;;
42590;SDS011;28218;53.342;-6.216;2022-07-04T12:28:14;3.03;;;0.77;;
42590;SDS011;28218;53.342;-6.216;2022-07-04T12:30:50;1.45;;;0.70;;
42590;SDS011;28218;53.342;-6.216;2022-07-04T12:33:20;3.35;;;0.90;;
42590;SDS011;28218;53.342;-6.216;2022-07-04T12:35:50;1.80;;;0.65;;
42590;SDS011;28218;53.342;-6.216;2022-07-04T12:38:20;3.00;;;0.90;;
42590;SDS011;28218;53.342;-6.216;2022-07-04T12:40:54;4.03;;;1.17;;
42590;SDS011;28218;53.342;-6.216;2022-07-04T12:43:24;3.95;;;0.82;;
42590;SDS011;28218;53.342;-6.216;2022-07-04T12:45:55;4.05;;;0.70;;
42590;SDS011;28218;53.342;-6.216;2022-07-04T12:48:27;3.83;;;1.17;;
42590;SDS011;28218;53.342;-6.216;2022-07-04T12:51:07;5.28;;;1.10;;
42590;SDS011;28218;53.342;-6.216;2022-07-04T12:53:38;3.22;;;0.85;;
42590;SDS011;28218;53.342;-6.216;2022-07-04T12:56:08;2.45;;;1.00;;
42590;SDS011;28218;53.342;-6.216;2022-07-04T12:58:37;3.58;;;1.20;;
42590;SDS011;28218;53.342;-6.216;2022-07-04T13:01:06;3.50;;;1.20;;
42590;SDS011;28218;53.342;-6.216;2022-07-04T13:03:35;4.15;;;1.23;;
42590;SDS011;28218;53.342;-6.216;2022-07-04T13:06:03;3.78;;;1.35;;
42590;SDS011;28218;53.342;-6.216;2022-07-04T13:08:31;3.63;;;1.38;;
42590;SDS011;28218;53.342;-6.216;2022-07-04T13:11:00;2.38;;;0.80;;
42590;SDS011;28218;53.342;-6.216;2022-07-04T13:13:45;2.83;;;0.90;;
42590;SDS011;28218;53.342;-6.216;2022-07-04T13:16:14;5.68;;;1.35;;
42590;SDS011;28218;53.342;-6.216;2022-07-04T13:18:43;6.30;;;1.17;;
42590;SDS011;28218;53.342;-6.216;2022-07-04T13:21:11;2.70;;;1.17;;
42590;SDS011;28218;53.342;-6.216;2022-07-04T13:23:39;4.88;;;1.30;;
42590;SDS011;28218;53.342;-6.216;2022-07-04T13:26:08;3.47;;;1.30;;
42590;SDS011;28218;53.342;-6.216;2022-07-04T13:28:36;3.55;;;1.27;;
42590;SDS011;28218;53.342;-6.216;2022-07-04T13:31:04;1.67;;;0.93;;
42590;SDS011;28218;53.342;-6.216;2022-07-04T13:33:34;3.20;;;1.10;;
42590;SDS011;28218;53.342;-6.216;2022-07-04T13:36:03;1.75;;;0.90;;
42590;SDS011;28218;53.342;-6.216;2022-07-04T13:38:31;8.13;;;0.90;;
42590;SDS011;28218;53.342;-6.216;2022-07-04T13:41:00;4.70;;;0.80;;
42590;SDS011;28218;53.342;-6.216;2022-07-04T13:43:28;4.63;;;1.33;;
42590;SDS011;28218;53.342;-6.216;2022-07-04T13:45:57;4.13;;;1.35;;
42590;SDS011;28218;53.342;-6.216;2022-07-04T13:48:25;1.77;;;0.98;;
42590;SDS011;28218;53.342;-6.216;2022-07-04T13:50:54;1.67;;;0.95;;
42590;SDS011;28218;53.342;-6.216;2022-07-04T13:53:23;1.88;;;1.10;;
42590;SDS011;28218;53.342;-6.216;2022-07-04T13:55:51;2.83;;;1.10;;
42590;SDS011;28218;53.342;-6.216;2022-07-04T13:58:19;4.55;;;1.38;;
42590;SDS011;28218;53.342;-6.216;2022-07-04T14:00:48;4.32;;;1.55;;
42590;SDS011;28218;53.342;-6.216;2022-07-04T14:03:16;6.13;;;1.45;;
42590;SDS011;28218;53.342;-6.216;2022-07-04T14:05:44;3.80;;;1.35;;
42590;SDS011;28218;53.342;-6.216;2022-07-04T14:08:14;7.15;;;1.30;;
42590;SDS011;28218;53.342;-6.216;2022-07-04T14:10:42;2.38;;;0.90;;
42590;SDS011;28218;53.342;-6.216;2022-07-04T14:13:10;2.70;;;1.02;;
42590;SDS011;28218;53.342;-6.216;2022-07-04T14:15:39;2.47;;;0.80;;
42590;SDS011;28218;53.342;-6.216;2022-07-04T14:18:08;3.22;;;0.93;;
42590;SDS011;28218;53.342;-6.216;2022-07-04T14:20:40;4.57;;;1.02;;
42590;SDS011;28218;53.342;-6.216;2022-07-04T14:23:08;7.30;;;1.23;;
42590;SDS011;28218;53.342;-6.216;2022-07-04T14:25:38;2.53;;;0.80;;
42590;SDS011;28218;53.342;-6.216;2022-07-04T14:28:06;4.53;;;0.90;;
42590;SDS011;28218;53.342;-6.216;2022-07-04T14:30:35;3.72;;;1.27;;
42590;SDS011;28218;53.342;-6.216;2022-07-04T14:33:03;4.18;;;1.20;;
42590;SDS011;28218;53.342;-6.216;2022-07-04T14:35:31;4.10;;;1.17;;
42590;SDS011;28218;53.342;-6.216;2022-07-04T14:37:59;5.10;;;1.10;;
42590;SDS011;28218;53.342;-6.216;2022-07-04T14:40:28;4.90;;;1.90;;
42590;SDS011;28218;53.342;-6.216;2022-07-04T14:42:58;1.25;;;1.15;;
42590;SDS011;28218;53.342;-6.216;2022-07-04T14:45:26;5.95;;;1.70;;
42590;SDS011;28218;53.342;-6.216;2022-07-04T14:47:54;6.60;;;2.92;;
42590;SDS011;28218;53.342;-6.216;2022-07-04T14:50:22;5.10;;;2.80;;
42590;SDS011;28218;53.342;-6.216;2022-07-04T14:52:50;13.70;;;5.65;;
42590;SDS011;28218;53.342;-6.216;2022-07-04T14:57:50;4.32;;;1.48;;
42590;SDS011;28218;53.342;-6.216;2022-07-04T15:00:19;11.25;;;3.42;;
42590;SDS011;28218;53.342;-6.216;2022-07-04T15:02:48;8.95;;;3.35;;
42590;SDS011;28218;53.342;-6.216;2022-07-04T15:05:18;4.70;;;2.43;;
42590;SDS011;28218;53.342;-6.216;2022-07-04T15:07:46;9.73;;;4.35;;
42590;SDS011;28218;53.342;-6.216;2022-07-04T15:10:15;4.25;;;1.70;;
42590;SDS011;28218;53.342;-6.216;2022-07-04T15:12:43;5.20;;;2.63;;